createdAt,value
2019-04-26T00:00:27.290Z,10.98
2019-04-26T00:01:27.282Z,10.89
2019-04-26T00:02:27.276Z,10.96
2019-04-26T00:03:27.289Z,10.83
2019-04-26T00:04:27.246Z,10.81
2019-04-26T00:05:34.431Z,10.88
2019-04-26T00:06:28.235Z,10.88
2019-04-26T00:07:27.223Z,10.83
2019-04-26T00:08:27.231Z,10.78
2019-04-26T00:09:27.191Z,10.74
2019-04-26T00:10:27.185Z,10.62
2019-04-26T00:11:27.170Z,10.66
2019-04-26T00:12:27.161Z,10.70
2019-04-26T00:13:27.174Z,10.73
2019-04-26T00:14:27.139Z,10.84
2019-04-26T00:15:27.128Z,10.81
2019-04-26T00:16:27.115Z,10.71
2019-04-26T00:17:27.115Z,10.62
2019-04-26T00:18:27.123Z,10.68
2019-04-26T00:19:27.090Z,10.58
2019-04-26T00:20:27.076Z,10.47
2019-04-26T00:21:27.058Z,10.44
2019-04-26T00:22:27.050Z,10.55
2019-04-26T00:23:27.067Z,10.52
2019-04-26T00:24:28.453Z,10.51
2019-04-26T00:25:27.020Z,10.59
2019-04-26T00:26:27.012Z,10.55
2019-04-26T00:27:26.999Z,10.58
2019-04-26T00:28:27.014Z,10.58
2019-04-26T00:29:26.979Z,10.55
2019-04-26T00:30:26.981Z,10.55
2019-04-26T00:31:26.959Z,10.52
2019-04-26T00:32:26.952Z,10.43
2019-04-26T00:33:26.964Z,10.44
2019-04-26T00:34:26.928Z,10.42
2019-04-26T00:35:26.912Z,10.51
2019-04-26T00:36:26.905Z,10.46
2019-04-26T00:37:26.913Z,10.51
2019-04-26T00:38:26.935Z,10.52
2019-04-26T00:39:26.872Z,10.51
2019-04-26T00:40:26.858Z,10.52
2019-04-26T00:41:26.856Z,10.44
2019-04-26T00:42:26.842Z,10.46
2019-04-26T00:43:26.830Z,10.46
2019-04-26T00:44:26.847Z,10.37
2019-04-26T00:45:26.807Z,10.34
2019-04-26T00:46:26.813Z,10.33
2019-04-26T00:47:26.783Z,10.28
2019-04-26T00:48:26.777Z,10.33
2019-04-26T00:49:26.803Z,10.26
2019-04-26T00:50:26.749Z,10.25
2019-04-26T00:51:26.742Z,10.30
2019-04-26T00:52:26.736Z,10.33
2019-04-26T00:53:26.730Z,10.25
2019-04-26T00:54:26.741Z,10.24
2019-04-26T00:55:26.738Z,10.24
2019-04-26T00:56:26.694Z,10.14
2019-04-26T00:57:26.679Z,10.14
2019-04-26T00:58:26.669Z,10.04
2019-04-26T00:59:26.684Z,10.03
2019-04-26T01:00:26.648Z,9.99
2019-04-26T01:01:26.638Z,9.86
2019-04-26T01:02:26.621Z,9.88
2019-04-26T01:03:26.619Z,9.89
2019-04-26T01:04:26.629Z,9.82
2019-04-26T01:05:26.592Z,9.82
2019-04-26T01:06:26.586Z,9.70
2019-04-26T01:07:26.576Z,9.68
2019-04-26T01:08:26.560Z,9.64
2019-04-26T01:09:26.579Z,9.53
2019-04-26T01:10:26.539Z,9.56
2019-04-26T01:11:26.527Z,9.49
2019-04-26T01:12:26.519Z,9.46
2019-04-26T01:13:26.515Z,9.38
2019-04-26T01:14:26.523Z,9.30
2019-04-26T01:15:26.664Z,9.32
2019-04-26T01:16:26.487Z,9.32
2019-04-26T01:17:26.805Z,9.25
2019-04-26T01:18:26.493Z,9.24
2019-04-26T01:19:26.593Z,9.24
2019-04-26T01:20:26.784Z,9.10
2019-04-26T01:21:26.902Z,9.15
2019-04-26T01:22:27.516Z,9.31
2019-04-26T01:23:27.283Z,9.28
2019-04-26T01:24:27.288Z,9.45
2019-04-26T01:25:27.381Z,9.48
2019-04-26T01:26:27.343Z,9.43
2019-04-26T01:27:26.360Z,9.46
2019-04-26T01:28:26.348Z,9.45
2019-04-26T01:29:26.367Z,9.63
2019-04-26T01:30:26.329Z,9.71
2019-04-26T01:31:26.319Z,9.68
2019-04-26T01:32:26.303Z,9.73
2019-04-26T01:33:26.301Z,9.75
2019-04-26T01:34:26.316Z,9.73
2019-04-26T01:35:26.316Z,9.64
2019-04-26T01:36:26.507Z,9.73
2019-04-26T01:37:26.718Z,9.73
2019-04-26T01:38:26.239Z,9.63
2019-04-26T01:39:26.258Z,9.49
2019-04-26T01:40:26.225Z,9.66
2019-04-26T01:41:26.207Z,9.79
2019-04-26T01:42:26.399Z,9.78
2019-04-26T01:43:26.429Z,9.67
2019-04-26T01:44:26.582Z,9.64
2019-04-26T01:45:26.166Z,9.68
2019-04-26T01:46:26.882Z,9.73
2019-04-26T01:47:26.280Z,9.76
2019-04-26T01:48:27.107Z,9.64
2019-04-26T01:49:26.244Z,9.66
2019-04-26T01:50:26.126Z,9.60
2019-04-26T01:51:26.606Z,9.42
2019-04-26T01:52:26.095Z,9.38
2019-04-26T01:53:26.646Z,9.30
2019-04-26T01:54:26.083Z,9.16
2019-04-26T01:55:26.986Z,9.13
2019-04-26T01:56:27.072Z,9.04
2019-04-26T01:57:27.246Z,8.94
2019-04-26T01:58:27.183Z,8.99
2019-04-26T01:59:26.050Z,8.87
2019-04-26T02:00:26.034Z,8.84
2019-04-26T02:01:25.996Z,8.72
2019-04-26T02:02:25.986Z,8.72
2019-04-26T02:03:25.982Z,8.69
2019-04-26T02:04:25.964Z,8.79
2019-04-26T02:05:25.997Z,8.73
2019-04-26T02:06:32.011Z,8.65
2019-04-26T02:07:26.935Z,8.73
2019-04-26T02:08:26.302Z,8.63
2019-04-26T02:09:26.373Z,8.54
2019-04-26T02:10:26.672Z,8.54
2019-04-26T02:11:26.711Z,8.57
2019-04-26T02:12:26.721Z,8.55
2019-04-26T02:13:26.821Z,8.54
2019-04-26T02:14:26.903Z,8.50
2019-04-26T02:15:27.083Z,8.50
2019-04-26T02:16:26.973Z,8.51
2019-04-26T02:17:25.827Z,8.37
2019-04-26T02:18:25.836Z,8.40
2019-04-26T02:19:25.823Z,8.37
2019-04-26T02:20:25.824Z,8.42
2019-04-26T02:21:26.377Z,8.33
2019-04-26T02:22:25.946Z,8.30
2019-04-26T02:23:26.391Z,8.26
2019-04-26T02:24:26.428Z,8.39
2019-04-26T02:25:26.048Z,8.37
2019-04-26T02:26:26.629Z,8.30
2019-04-26T02:27:26.235Z,8.29
2019-04-26T02:28:26.759Z,8.30
2019-04-26T02:29:26.844Z,8.26
2019-04-26T02:30:27.074Z,8.21
2019-04-26T02:31:27.291Z,8.26
2019-04-26T02:32:27.436Z,8.37
2019-04-26T02:33:27.458Z,8.55
2019-04-26T02:34:27.959Z,8.58
2019-04-26T02:35:27.083Z,8.48
2019-04-26T02:36:45.102Z,8.50
2019-04-26T02:37:26.948Z,8.51
2019-04-26T02:38:27.438Z,8.53
2019-04-26T02:39:26.311Z,8.47
2019-04-26T02:40:27.534Z,8.53
2019-04-26T02:41:27.468Z,8.51
2019-04-26T02:42:26.624Z,8.50
2019-04-26T02:43:26.434Z,8.51
2019-04-26T02:44:26.604Z,8.60
2019-04-26T02:45:28.306Z,8.63
2019-04-26T02:46:28.456Z,8.60
2019-04-26T02:47:26.691Z,8.72
2019-04-26T02:48:27.106Z,8.73
2019-04-26T02:49:27.474Z,8.63
2019-04-26T02:50:28.356Z,8.58
2019-04-26T02:51:25.492Z,8.57
2019-04-26T02:52:25.456Z,8.48
2019-04-26T02:53:25.441Z,8.50
2019-04-26T02:54:25.429Z,8.50
2019-04-26T02:55:25.427Z,8.37
2019-04-26T02:56:25.438Z,8.44
2019-04-26T02:57:25.399Z,8.51
2019-04-26T02:58:25.394Z,8.50
2019-04-26T02:59:25.379Z,8.54
2019-04-26T03:00:25.371Z,8.45
2019-04-26T03:01:25.379Z,8.48
2019-04-26T03:02:25.364Z,8.58
2019-04-26T03:03:25.330Z,8.58
2019-04-26T03:04:25.327Z,8.69
2019-04-26T03:05:25.310Z,8.57
2019-04-26T03:06:25.326Z,8.60
2019-04-26T03:07:25.305Z,8.71
2019-04-26T03:08:25.289Z,8.72
2019-04-26T03:09:25.272Z,8.75
2019-04-26T03:10:25.260Z,8.84
2019-04-26T03:11:25.278Z,8.81
2019-04-26T03:12:25.238Z,8.91
2019-04-26T03:13:25.244Z,8.96
2019-04-26T03:14:25.245Z,9.04
2019-04-26T03:15:25.221Z,9.06
2019-04-26T03:16:25.235Z,9.20
2019-04-26T03:17:25.195Z,9.32
2019-04-26T03:18:25.180Z,9.34
2019-04-26T03:19:25.173Z,9.49
2019-04-26T03:20:25.155Z,9.46
2019-04-26T03:21:25.186Z,9.56
2019-04-26T03:22:25.139Z,9.50
2019-04-26T03:23:41.033Z,9.67
2019-04-26T03:24:26.132Z,9.75
2019-04-26T03:25:25.110Z,9.81
2019-04-26T03:26:25.118Z,9.81
2019-04-26T03:27:25.079Z,9.85
2019-04-26T03:28:25.252Z,9.88
2019-04-26T03:29:25.092Z,9.88
2019-04-26T03:30:25.047Z,9.83
2019-04-26T03:31:25.084Z,9.83
2019-04-26T03:32:25.029Z,9.91
2019-04-26T03:33:25.186Z,9.89
2019-04-26T03:34:25.014Z,9.88
2019-04-26T03:35:25.009Z,9.91
2019-04-26T03:36:25.033Z,9.89
2019-04-26T03:37:24.994Z,9.99
2019-04-26T03:38:24.961Z,10.04
2019-04-26T03:39:24.955Z,9.96
2019-04-26T03:40:24.939Z,10.03
2019-04-26T03:41:24.962Z,10.01
2019-04-26T03:42:24.928Z,9.99
2019-04-26T03:43:24.914Z,10.01
2019-04-26T03:44:24.903Z,10.03
2019-04-26T03:45:24.919Z,10.06
2019-04-26T03:46:24.879Z,10.03
2019-04-26T03:47:24.871Z,9.97
2019-04-26T03:48:24.860Z,10.00
2019-04-26T03:49:24.852Z,10.01
2019-04-26T03:50:24.868Z,10.04
2019-04-26T03:51:24.822Z,10.00
2019-04-26T03:52:24.813Z,10.00
2019-04-26T03:53:24.804Z,10.04
2019-04-26T03:54:24.803Z,10.04
2019-04-26T03:55:24.811Z,10.07
2019-04-26T03:56:24.771Z,10.15
2019-04-26T03:57:24.770Z,10.12
2019-04-26T03:58:24.751Z,10.04
2019-04-26T03:59:24.745Z,10.12
2019-04-26T04:00:24.755Z,10.03
2019-04-26T04:01:24.718Z,10.03
2019-04-26T04:02:24.703Z,10.06
2019-04-26T04:03:26.829Z,10.00
2019-04-26T04:04:24.685Z,10.03
2019-04-26T04:05:24.828Z,9.94
2019-04-26T04:06:24.688Z,9.97
2019-04-26T04:07:36.737Z,10.04
2019-04-26T04:08:25.639Z,10.01
2019-04-26T04:09:24.630Z,9.97
2019-04-26T04:10:24.618Z,10.06
2019-04-26T04:11:24.746Z,10.03
2019-04-26T04:12:24.698Z,10.01
2019-04-26T04:13:24.591Z,10.09
2019-04-26T04:14:24.678Z,10.15
2019-04-26T04:15:24.570Z,10.17
2019-04-26T04:16:24.585Z,10.12
2019-04-26T04:17:24.562Z,10.12
2019-04-26T04:18:24.536Z,10.04
2019-04-26T04:19:24.537Z,10.21
2019-04-26T04:20:24.515Z,10.15
2019-04-26T04:21:24.533Z,10.14
2019-04-26T04:22:24.495Z,10.14
2019-04-26T04:23:24.485Z,10.25
2019-04-26T04:24:24.478Z,10.24
2019-04-26T04:25:24.480Z,10.28
2019-04-26T04:26:24.528Z,10.30
2019-04-26T04:27:24.439Z,10.32
2019-04-26T04:28:24.428Z,10.44
2019-04-26T04:29:39.017Z,10.58
2019-04-26T04:30:25.405Z,10.60
2019-04-26T04:31:24.426Z,10.68
2019-04-26T04:32:24.382Z,10.70
2019-04-26T04:33:24.376Z,10.74
2019-04-26T04:34:24.368Z,10.73
2019-04-26T04:35:24.362Z,10.78
2019-04-26T04:36:24.377Z,10.78
2019-04-26T04:37:24.346Z,10.80
2019-04-26T04:38:24.338Z,10.77
2019-04-26T04:39:24.310Z,10.71
2019-04-26T04:40:24.301Z,10.73
2019-04-26T04:41:24.315Z,10.70
2019-04-26T04:42:24.282Z,10.68
2019-04-26T04:43:24.417Z,10.62
2019-04-26T04:44:24.259Z,10.71
2019-04-26T04:45:24.247Z,10.68
2019-04-26T04:46:24.429Z,10.66
2019-04-26T04:47:25.608Z,10.66
2019-04-26T04:48:24.211Z,10.68
2019-04-26T04:49:24.204Z,10.73
2019-04-26T04:50:24.192Z,10.66
2019-04-26T04:51:24.217Z,10.74
2019-04-26T04:52:24.173Z,10.74
2019-04-26T04:53:24.176Z,10.63
2019-04-26T04:54:24.147Z,10.74
2019-04-26T04:55:24.142Z,10.83
2019-04-26T04:56:24.164Z,10.77
2019-04-26T04:57:24.120Z,10.86
2019-04-26T04:58:24.108Z,10.92
2019-04-26T04:59:24.099Z,10.94
2019-04-26T05:00:24.084Z,10.91
2019-04-26T05:01:24.103Z,10.84
2019-04-26T05:02:24.071Z,10.84
2019-04-26T05:03:24.054Z,10.88
2019-04-26T05:04:24.047Z,10.91
2019-04-26T05:05:24.037Z,10.96
2019-04-26T05:06:24.046Z,10.88
2019-04-26T05:07:24.007Z,11.03
2019-04-26T05:08:24.005Z,11.01
2019-04-26T05:09:23.992Z,10.99
2019-04-26T05:10:23.982Z,11.01
2019-04-26T05:11:24.036Z,10.98
2019-04-26T05:12:23.958Z,10.94
2019-04-26T05:13:23.948Z,10.98
2019-04-26T05:14:23.939Z,10.98
2019-04-26T05:15:23.930Z,10.96
2019-04-26T05:16:23.957Z,11.02
2019-04-26T05:17:23.902Z,11.14
2019-04-26T05:18:23.892Z,11.10
2019-04-26T05:19:23.882Z,11.10
2019-04-26T05:20:23.874Z,11.03
2019-04-26T05:21:23.891Z,11.01
2019-04-26T05:22:23.847Z,11.10
2019-04-26T05:23:23.840Z,11.09
2019-04-26T05:24:23.842Z,11.02
2019-04-26T05:25:23.816Z,11.10
2019-04-26T05:26:23.832Z,11.16
2019-04-26T05:27:23.794Z,11.16
2019-04-26T05:28:23.795Z,11.14
2019-04-26T05:29:23.775Z,11.09
2019-04-26T05:30:23.771Z,11.11
2019-04-26T05:31:23.784Z,11.14
2019-04-26T05:32:23.743Z,11.11
2019-04-26T05:33:23.732Z,11.01
2019-04-26T05:34:23.726Z,11.11
2019-04-26T05:35:23.706Z,11.19
2019-04-26T05:36:23.723Z,11.19
2019-04-26T05:37:23.689Z,11.25
2019-04-26T05:38:23.687Z,11.16
2019-04-26T05:39:23.667Z,11.24
2019-04-26T05:40:23.676Z,11.34
2019-04-26T05:41:23.674Z,11.28
2019-04-26T05:42:23.635Z,11.24
2019-04-26T05:43:23.629Z,11.24
2019-04-26T05:44:23.613Z,11.27
2019-04-26T05:45:23.606Z,11.36
2019-04-26T05:46:23.648Z,11.35
2019-04-26T05:47:23.583Z,11.39
2019-04-26T05:48:23.572Z,11.39
2019-04-26T05:49:23.572Z,11.34
2019-04-26T05:50:23.554Z,11.34
2019-04-26T05:51:23.539Z,11.39
2019-04-26T05:52:23.558Z,11.35
2019-04-26T05:53:23.519Z,11.41
2019-04-26T05:54:23.555Z,11.36
2019-04-26T05:55:23.498Z,11.41
2019-04-26T05:56:23.489Z,11.38
2019-04-26T05:57:23.566Z,11.43
2019-04-26T05:58:23.471Z,11.43
2019-04-26T05:59:23.457Z,11.50
2019-04-26T06:00:23.446Z,11.65
2019-04-26T06:01:23.435Z,11.67
2019-04-26T06:02:23.463Z,11.74
2019-04-26T06:03:23.422Z,11.78
2019-04-26T06:04:23.406Z,11.71
2019-04-26T06:05:23.395Z,11.86
2019-04-26T06:06:23.393Z,11.78
2019-04-26T06:07:23.405Z,11.97
2019-04-26T06:08:31.010Z,11.87
2019-04-26T06:09:24.350Z,11.83
2019-04-26T06:10:23.342Z,11.82
2019-04-26T06:11:23.335Z,11.96
2019-04-26T06:12:23.351Z,11.90
2019-04-26T06:13:23.320Z,12.04
2019-04-26T06:14:23.303Z,11.94
2019-04-26T06:15:23.288Z,11.90
2019-04-26T06:16:23.280Z,11.78
2019-04-26T06:17:23.291Z,11.75
2019-04-26T06:18:23.265Z,11.80
2019-04-26T06:19:23.250Z,11.75
2019-04-26T06:20:23.619Z,11.83
2019-04-26T06:21:23.225Z,11.82
2019-04-26T06:22:23.235Z,11.82
2019-04-26T06:23:23.203Z,11.80
2019-04-26T06:24:23.189Z,11.85
2019-04-26T06:25:23.200Z,11.80
2019-04-26T06:26:23.169Z,11.83
2019-04-26T06:27:23.181Z,11.94
2019-04-26T06:28:23.151Z,11.96
2019-04-26T06:29:23.136Z,12.02
2019-04-26T06:30:23.125Z,11.96
2019-04-26T06:31:23.116Z,11.94
2019-04-26T06:32:23.151Z,11.87
2019-04-26T06:33:23.091Z,11.82
2019-04-26T06:34:23.085Z,11.80
2019-04-26T06:35:23.072Z,11.75
2019-04-26T06:36:23.084Z,11.78
2019-04-26T06:37:23.079Z,11.78
2019-04-26T06:38:23.035Z,11.86
2019-04-26T06:39:23.023Z,11.85
2019-04-26T06:40:23.011Z,11.93
2019-04-26T06:41:23.008Z,11.80
2019-04-26T06:42:23.018Z,11.77
2019-04-26T06:43:22.980Z,11.89
2019-04-26T06:44:22.976Z,11.77
2019-04-26T06:45:22.956Z,11.78
2019-04-26T06:46:22.947Z,11.78
2019-04-26T06:47:22.961Z,11.86
2019-04-26T06:48:22.925Z,11.77
2019-04-26T06:49:22.919Z,11.75
2019-04-26T06:50:22.905Z,11.82
2019-04-26T06:51:24.972Z,11.85
2019-04-26T06:52:22.913Z,11.86
2019-04-26T06:53:22.876Z,11.96
2019-04-26T06:54:22.857Z,12.09
2019-04-26T06:55:22.848Z,12.13
2019-04-26T06:56:22.838Z,12.30
2019-04-26T06:57:22.857Z,12.51
2019-04-26T06:58:22.815Z,12.42
2019-04-26T06:59:22.810Z,12.57
2019-04-26T07:00:22.791Z,12.63
2019-04-26T07:01:22.784Z,12.64
2019-04-26T07:02:22.800Z,12.69
2019-04-26T07:03:22.761Z,12.62
2019-04-26T07:04:22.755Z,12.45
2019-04-26T07:05:22.742Z,12.46
2019-04-26T07:06:34.519Z,12.42
2019-04-26T07:07:23.746Z,12.51
2019-04-26T07:08:22.702Z,12.46
2019-04-26T07:09:22.698Z,12.37
2019-04-26T07:10:22.688Z,12.33
2019-04-26T07:11:22.675Z,12.29
2019-04-26T07:12:22.717Z,12.31
2019-04-26T07:13:22.654Z,12.21
2019-04-26T07:14:22.643Z,12.30
2019-04-26T07:15:28.702Z,12.33
2019-04-26T07:16:23.624Z,12.27
2019-04-26T07:17:22.608Z,12.23
2019-04-26T07:18:22.639Z,12.06
2019-04-26T07:19:22.591Z,12.06
2019-04-26T07:20:22.578Z,12.06
2019-04-26T07:21:22.567Z,12.09
2019-04-26T07:22:34.587Z,12.04
2019-04-26T07:23:23.574Z,12.08
2019-04-26T07:24:22.535Z,12.16
2019-04-26T07:25:22.524Z,11.96
2019-04-26T07:26:22.514Z,11.78
2019-04-26T07:27:22.505Z,11.75
2019-04-26T07:28:22.620Z,11.72
2019-04-26T07:29:22.487Z,11.75
2019-04-26T07:30:22.542Z,11.72
2019-04-26T07:31:22.464Z,11.82
2019-04-26T07:32:22.455Z,11.70
2019-04-26T07:33:22.472Z,11.78
2019-04-26T07:34:22.433Z,11.75
2019-04-26T07:35:22.415Z,11.82
2019-04-26T07:36:22.407Z,11.75
2019-04-26T07:37:22.404Z,11.74
2019-04-26T07:38:22.414Z,11.57
2019-04-26T07:39:22.380Z,11.74
2019-04-26T07:40:22.365Z,11.68
2019-04-26T07:41:22.357Z,11.59
2019-04-26T07:42:22.343Z,11.71
2019-04-26T07:43:22.359Z,11.59
2019-04-26T07:44:22.323Z,11.53
2019-04-26T07:45:22.308Z,11.53
2019-04-26T07:46:22.300Z,11.52
2019-04-26T07:47:22.289Z,11.52
2019-04-26T07:48:22.305Z,11.41
2019-04-26T07:49:22.265Z,11.24
2019-04-26T07:50:22.251Z,11.21
2019-04-26T07:51:22.245Z,11.06
2019-04-26T07:52:22.231Z,11.06
2019-04-26T07:53:22.251Z,11.02
2019-04-26T07:54:22.209Z,11.01
2019-04-26T07:55:22.208Z,10.92
2019-04-26T07:56:22.191Z,10.99
2019-04-26T07:57:22.176Z,10.99
2019-04-26T07:58:22.193Z,10.88
2019-04-26T07:59:22.155Z,10.76
2019-04-26T08:00:22.156Z,10.74
2019-04-26T08:01:22.131Z,10.68
2019-04-26T08:02:22.123Z,10.63
2019-04-26T08:03:22.139Z,10.63
2019-04-26T08:04:22.117Z,10.51
2019-04-26T08:05:22.084Z,10.52
2019-04-26T08:06:22.083Z,10.44
2019-04-26T08:07:22.074Z,10.46
2019-04-26T08:08:22.093Z,10.32
2019-04-26T08:09:26.963Z,10.40
2019-04-26T08:10:23.035Z,10.36
2019-04-26T08:11:22.015Z,10.28
2019-04-26T08:12:22.018Z,10.25
2019-04-26T08:13:22.015Z,10.18
2019-04-26T08:14:22.023Z,10.14
2019-04-26T08:15:24.878Z,10.17
2019-04-26T08:16:21.982Z,10.07
2019-04-26T08:17:21.969Z,10.17
2019-04-26T08:18:21.955Z,10.15
2019-04-26T08:19:21.982Z,10.19
2019-04-26T08:20:21.935Z,10.10
2019-04-26T08:21:21.920Z,10.14
2019-04-26T08:22:28.323Z,10.12
2019-04-26T08:23:38.456Z,10.26
2019-04-26T08:24:22.937Z,10.34
2019-04-26T08:25:21.984Z,10.32
2019-04-26T08:26:22.004Z,10.36
2019-04-26T08:27:24.002Z,10.30
2019-04-26T08:28:21.962Z,10.47
2019-04-26T08:29:22.019Z,10.46
2019-04-26T08:30:22.910Z,10.56
2019-04-26T08:31:24.421Z,10.55
2019-04-26T08:32:21.806Z,10.63
2019-04-26T08:33:21.795Z,10.68
2019-04-26T08:34:28.807Z,10.73
2019-04-26T08:35:22.845Z,10.76
2019-04-26T08:36:23.231Z,10.71
2019-04-26T08:37:21.759Z,11.06
2019-04-26T08:38:22.749Z,11.11
2019-04-26T08:39:23.400Z,11.29
2019-04-26T08:40:30.117Z,11.49
2019-04-26T08:41:22.712Z,11.27
2019-04-26T08:42:23.827Z,11.29
2019-04-26T08:43:22.601Z,11.28
2019-04-26T08:44:21.727Z,11.38
2019-04-26T08:45:21.823Z,11.41
2019-04-26T08:46:21.662Z,11.44
2019-04-26T08:47:26.090Z,11.41
2019-04-26T08:48:22.407Z,11.03
2019-04-26T08:49:22.651Z,11.01
2019-04-26T08:50:22.235Z,11.03
2019-04-26T08:51:22.094Z,11.09
2019-04-26T08:52:21.593Z,11.01
2019-04-26T08:53:21.580Z,10.94
2019-04-26T08:54:21.612Z,10.91
2019-04-26T08:55:21.561Z,10.91
2019-04-26T08:56:21.545Z,10.92
2019-04-26T08:57:21.532Z,11.06
2019-04-26T08:58:21.535Z,11.10
2019-04-26T08:59:21.542Z,11.20
2019-04-26T09:00:21.499Z,11.24
2019-04-26T09:01:21.497Z,11.20
2019-04-26T09:02:21.502Z,11.25
2019-04-26T09:03:21.474Z,11.16
2019-04-26T09:04:21.498Z,11.20
2019-04-26T09:05:21.449Z,11.27
2019-04-26T09:06:21.441Z,10.99
2019-04-26T09:07:21.425Z,10.91
2019-04-26T09:08:21.416Z,10.83
2019-04-26T09:09:21.432Z,10.83
2019-04-26T09:10:21.398Z,10.81
2019-04-26T09:11:25.817Z,10.80
2019-04-26T09:12:23.530Z,10.86
2019-04-26T09:13:21.360Z,10.86
2019-04-26T09:14:21.389Z,10.98
2019-04-26T09:15:21.346Z,11.10
2019-04-26T09:16:21.333Z,11.25
2019-04-26T09:17:21.322Z,11.35
2019-04-26T09:18:21.308Z,11.41
2019-04-26T09:19:21.330Z,11.65
2019-04-26T09:20:28.657Z,11.86
2019-04-26T09:21:22.279Z,11.97
2019-04-26T09:22:22.674Z,12.31
2019-04-26T09:23:21.253Z,12.64
2019-04-26T09:24:24.968Z,12.77
2019-04-26T09:25:22.856Z,12.69
2019-04-26T09:26:21.257Z,12.64
2019-04-26T09:27:22.467Z,12.67
2019-04-26T09:28:21.212Z,12.82
2019-04-26T09:29:21.215Z,12.87
2019-04-26T09:30:33.318Z,12.93
2019-04-26T09:31:22.169Z,12.69
2019-04-26T09:32:24.212Z,12.71
2019-04-26T09:33:22.247Z,12.75
2019-04-26T09:34:21.309Z,12.67
2019-04-26T09:35:21.124Z,12.41
2019-04-26T09:36:21.117Z,12.19
2019-04-26T09:37:21.109Z,12.08
2019-04-26T09:38:21.097Z,11.99
2019-04-26T09:39:21.127Z,11.99
2019-04-26T09:40:22.665Z,12.04
2019-04-26T09:41:21.072Z,11.83
2019-04-26T09:42:21.054Z,11.75
2019-04-26T09:43:21.045Z,11.57
2019-04-26T09:44:21.037Z,11.74
2019-04-26T09:45:21.044Z,11.75
2019-04-26T09:46:21.013Z,11.89
2019-04-26T09:47:20.997Z,11.96
2019-04-26T09:48:20.988Z,11.94
2019-04-26T09:49:20.983Z,12.04
2019-04-26T09:50:21.269Z,12.15
2019-04-26T09:51:20.959Z,12.02
2019-04-26T09:52:20.951Z,12.05
2019-04-26T09:53:20.936Z,12.19
2019-04-26T09:54:20.928Z,12.38
2019-04-26T09:55:20.944Z,12.37
2019-04-26T09:56:20.905Z,12.59
2019-04-26T09:57:20.891Z,12.84
2019-04-26T09:58:20.917Z,13.12
2019-04-26T09:59:20.879Z,13.15
2019-04-26T10:00:20.893Z,13.20
2019-04-26T10:01:24.175Z,13.36
2019-04-26T10:02:21.842Z,13.51
2019-04-26T10:03:20.830Z,13.22
2019-04-26T10:04:20.817Z,13.21
2019-04-26T10:05:22.426Z,12.95
2019-04-26T10:06:20.800Z,12.88
2019-04-26T10:07:20.794Z,12.74
2019-04-26T10:08:20.777Z,12.93
2019-04-26T10:09:22.669Z,13.18
2019-04-26T10:10:23.126Z,13.51
2019-04-26T10:11:20.756Z,13.62
2019-04-26T10:12:20.732Z,14.01
2019-04-26T10:13:20.721Z,13.80
2019-04-26T10:14:20.714Z,13.73
2019-04-26T10:15:22.553Z,13.61
2019-04-26T10:16:21.722Z,13.54
2019-04-26T10:17:20.685Z,13.87
2019-04-26T10:18:24.366Z,13.99
2019-04-26T10:19:21.664Z,13.74
2019-04-26T10:20:20.652Z,13.65
2019-04-26T10:21:20.673Z,13.67
2019-04-26T10:22:20.635Z,13.59
2019-04-26T10:23:20.624Z,13.43
2019-04-26T10:24:20.610Z,13.58
2019-04-26T10:25:20.603Z,13.15
2019-04-26T10:26:23.272Z,13.37
2019-04-26T10:27:21.577Z,13.61
2019-04-26T10:28:20.570Z,13.77
2019-04-26T10:29:21.693Z,13.83
2019-04-26T10:30:20.543Z,13.79
2019-04-26T10:31:20.564Z,13.67
2019-04-26T10:32:21.598Z,13.67
2019-04-26T10:33:21.515Z,13.84
2019-04-26T10:34:20.508Z,13.59
2019-04-26T10:35:21.712Z,13.71
2019-04-26T10:36:20.510Z,13.55
2019-04-26T10:37:20.473Z,13.73
2019-04-26T10:38:23.827Z,13.73
2019-04-26T10:39:20.459Z,13.81
2019-04-26T10:40:20.443Z,14.13
2019-04-26T10:41:20.460Z,13.83
2019-04-26T10:42:20.422Z,13.81
2019-04-26T10:43:20.414Z,13.74
2019-04-26T10:44:20.399Z,13.84
2019-04-26T10:45:20.385Z,13.65
2019-04-26T10:46:20.401Z,13.58
2019-04-26T10:47:20.368Z,13.37
2019-04-26T10:48:23.060Z,13.21
2019-04-26T10:49:24.322Z,13.14
2019-04-26T10:50:20.345Z,13.29
2019-04-26T10:51:20.359Z,13.30
2019-04-26T10:52:20.318Z,13.32
2019-04-26T10:53:20.303Z,13.17
2019-04-26T10:54:20.304Z,13.03
2019-04-26T10:55:20.296Z,13.21
2019-04-26T10:56:24.093Z,13.07
2019-04-26T10:57:20.301Z,13.06
2019-04-26T10:58:20.255Z,13.00
2019-04-26T10:59:22.675Z,12.89
2019-04-26T11:00:20.231Z,13.00
2019-04-26T11:01:20.223Z,13.20
2019-04-26T11:02:20.235Z,13.32
2019-04-26T11:03:20.201Z,13.46
2019-04-26T11:04:20.195Z,13.59
2019-04-26T11:05:20.177Z,13.63
2019-04-26T11:06:20.171Z,13.56
2019-04-26T11:07:20.181Z,13.47
2019-04-26T11:08:20.143Z,13.56
2019-04-26T11:09:20.135Z,13.36
2019-04-26T11:10:20.124Z,13.44
2019-04-26T11:11:20.115Z,13.41
2019-04-26T11:12:20.129Z,13.20
2019-04-26T11:13:20.098Z,13.18
2019-04-26T11:14:22.603Z,13.11
2019-04-26T11:15:20.098Z,13.12
2019-04-26T11:16:20.072Z,12.92
2019-04-26T11:17:20.047Z,12.87
2019-04-26T11:18:27.269Z,12.64
2019-04-26T11:19:21.085Z,12.69
2019-04-26T11:20:20.048Z,12.87
2019-04-26T11:21:20.830Z,12.97
2019-04-26T11:22:29.013Z,12.82
2019-04-26T11:23:20.983Z,12.81
2019-04-26T11:24:20.947Z,12.78
2019-04-26T11:25:19.992Z,12.78
2019-04-26T11:26:19.968Z,12.74
2019-04-26T11:27:19.978Z,12.79
2019-04-26T11:28:21.273Z,12.95
2019-04-26T11:29:19.930Z,12.95
2019-04-26T11:30:21.137Z,13.03
2019-04-26T11:31:23.359Z,13.09
2019-04-26T11:32:20.917Z,13.03
2019-04-26T11:33:19.898Z,13.09
2019-04-26T11:34:23.568Z,13.21
2019-04-26T11:35:20.856Z,13.20
2019-04-26T11:36:19.852Z,13.02
2019-04-26T11:37:19.917Z,13.14
2019-04-26T11:38:21.723Z,13.37
2019-04-26T11:39:19.821Z,13.44
2019-04-26T11:40:19.805Z,13.69
2019-04-26T11:41:19.881Z,13.79
2019-04-26T11:42:19.786Z,13.88
2019-04-26T11:43:21.083Z,13.73
2019-04-26T11:44:23.378Z,13.71
2019-04-26T11:45:20.752Z,13.98
2019-04-26T11:46:21.766Z,14.10
2019-04-26T11:47:20.732Z,14.14
2019-04-26T11:48:19.746Z,14.27
2019-04-26T11:49:19.705Z,14.27
2019-04-26T11:50:19.732Z,14.19
2019-04-26T11:51:19.683Z,14.04
2019-04-26T11:52:19.678Z,13.94
2019-04-26T11:53:19.694Z,14.20
2019-04-26T11:54:20.789Z,14.10
2019-04-26T11:55:19.660Z,14.25
2019-04-26T11:56:19.647Z,14.24
2019-04-26T11:57:19.623Z,14.21
2019-04-26T11:58:22.645Z,14.49
2019-04-26T11:59:19.607Z,14.19
2019-04-26T12:00:19.595Z,13.92
2019-04-26T12:01:19.585Z,13.74
2019-04-26T12:02:19.573Z,13.88
2019-04-26T12:03:21.124Z,14.10
2019-04-26T12:04:19.554Z,14.02
2019-04-26T12:05:19.551Z,13.87
2019-04-26T12:06:21.348Z,14.02
2019-04-26T12:07:19.533Z,14.02
2019-04-26T12:08:19.541Z,14.19
2019-04-26T12:09:19.505Z,14.12
2019-04-26T12:10:19.491Z,14.39
2019-04-26T12:11:25.943Z,14.24
2019-04-26T12:12:20.467Z,14.35
2019-04-26T12:13:21.315Z,14.24
2019-04-26T12:14:20.881Z,13.92
2019-04-26T12:15:29.691Z,13.92
2019-04-26T12:16:20.583Z,13.88
2019-04-26T12:17:19.416Z,13.76
2019-04-26T12:18:19.451Z,13.84
2019-04-26T12:19:19.845Z,13.76
2019-04-26T12:20:22.464Z,13.69
2019-04-26T12:21:20.380Z,13.67
2019-04-26T12:22:19.363Z,13.76
2019-04-26T12:23:21.678Z,13.91
2019-04-26T12:24:19.339Z,13.77
2019-04-26T12:25:19.331Z,13.65
2019-04-26T12:26:21.797Z,13.74
2019-04-26T12:27:19.530Z,13.76
2019-04-26T12:28:19.339Z,14.10
2019-04-26T12:29:19.304Z,14.35
2019-04-26T12:30:19.279Z,14.32
2019-04-26T12:31:19.271Z,14.09
2019-04-26T12:32:19.273Z,14.20
2019-04-26T12:33:19.288Z,13.95
2019-04-26T12:34:19.240Z,13.76
2019-04-26T12:35:19.235Z,14.01
2019-04-26T12:36:19.215Z,13.89
2019-04-26T12:37:20.901Z,13.84
2019-04-26T12:38:19.227Z,13.92
2019-04-26T12:39:19.187Z,14.09
2019-04-26T12:40:19.505Z,14.29
2019-04-26T12:41:22.262Z,14.32
2019-04-26T12:42:20.161Z,14.13
2019-04-26T12:43:19.993Z,14.01
2019-04-26T12:44:19.135Z,14.12
2019-04-26T12:45:19.124Z,14.06
2019-04-26T12:46:22.673Z,13.87
2019-04-26T12:47:20.104Z,13.74
2019-04-26T12:48:19.098Z,13.74
2019-04-26T12:49:20.331Z,13.73
2019-04-26T12:50:19.071Z,13.83
2019-04-26T12:51:19.063Z,13.87
2019-04-26T12:52:21.545Z,13.89
2019-04-26T12:53:19.044Z,14.02
2019-04-26T12:54:19.067Z,13.73
2019-04-26T12:55:20.198Z,13.69
2019-04-26T12:56:19.012Z,13.62
2019-04-26T12:57:19.001Z,13.76